Aérodrome :
LOGIN :

S'inscrire | Disclaimer

   EN    FR    IT 

 










Légende :    VFR   VFR Marginal   IFR   IFR Intensif   IFR Très Intensif
Visi : 
Plafond : 
>= 8 km
>= 3000ft
5 à 8 km
1000 à 3000 ft
1500m à 5 km
500 à 1000 ft
800 à 1500m
200 à 500 ft
< 800m
< 200 ft
Symboles :   Orages  Brouillard  Fortes neiges  Fortes précipitations  Vent > 20 kt
SIGMETs :   Divers  Orages  Givrage  Turbulence  Onde Orograph.  Cendres Volcan.






- Altitude de l'aérodrome : 427 ft
- Code IATA : CIA


LIRA - Roma Ciampino

DERNIER METAR :
  • 192150Z 15002KT CAVOK 22/19 Q1017

METARs EXPIRÉS :
  • 192120Z 16003KT CAVOK 23/20 Q1017
  • 192050Z 16004KT CAVOK 23/20 Q1017
  • 192020Z 19003KT CAVOK 24/21 Q1017
  • 191950Z 21003KT CAVOK 23/21 Q1017
  • 191920Z 20003KT CAVOK 24/21 Q1017
  • 191850Z 21003KT CAVOK 24/21 Q1017

TAF TAF LIRA
Valide du 19 à 18h jusqu'au 20 à 18h UTC


191700Z 1918/2018 VRB05KT 9999 SCT035
BECMG 2008/2010 22010KT
TEMPO 2011/2014 RA
TEMPO 2014/2018 SHRA



MET'MAP, la Météo Aéronautique d'un coup d'oeil ! - Copyright ORBIFLY Décembre 2007 - Disclaimer

ORBIFLY MET'MAP TEAM :

Programmation & Développement : Alexandra Zaïnal
Sur une idée originale de : Baudouin d'Aumeries
Assistance à la programmation : Marc-Olivier Méhu
Soutien technique & logistique : Manuel Goepfert

Contact : metmap@orbifly.com




SOURCES & CREDITS :

   NOAA